Airport View

Enter AWOS ICAO identifier for current METAR.

ex. KFNL

KTEX 261135Z AUTO 00000KT 10SM CLR 12/M06 A3037 RMK AO2

26 Jun 2019 11:57

Frequency: 118.325

Phone: 970-728-1534

Other Area AWOS: KMTJ - KAIB - KDRO - KAJZ

TAF KTEX 260533Z 2606/2706 13005KT P6SM FEW200 FM261500 17006KT P6SM FEW200 FM261700 21011G21KT P6SM FEW200 FM270000 21009KT P6SM FEW250